sensor_id;sensor_type;location;lat;lon;timestamp;temperature;humidity
13123;DHT22;6627;50.920;12.050;2023-09-07T00:02:25;13.30;99.90
13123;DHT22;6627;50.920;12.050;2023-09-07T00:04:53;13.10;99.90
13123;DHT22;6627;50.920;12.050;2023-09-07T00:07:21;13.10;99.90
13123;DHT22;6627;50.920;12.050;2023-09-07T00:09:48;13.00;99.90
13123;DHT22;6627;50.920;12.050;2023-09-07T00:12:16;13.00;99.90
13123;DHT22;6627;50.920;12.050;2023-09-07T00:14:44;13.10;99.90
13123;DHT22;6627;50.920;12.050;2023-09-07T00:17:12;13.00;99.90
13123;DHT22;6627;50.920;12.050;2023-09-07T00:19:39;13.00;99.90
13123;DHT22;6627;50.920;12.050;2023-09-07T00:22:06;13.00;99.90
13123;DHT22;6627;50.920;12.050;2023-09-07T00:24:35;12.90;99.90
13123;DHT22;6627;50.920;12.050;2023-09-07T00:27:03;12.90;99.90
13123;DHT22;6627;50.920;12.050;2023-09-07T00:29:52;12.90;99.90
13123;DHT22;6627;50.920;12.050;2023-09-07T00:32:26;13.10;99.90
13123;DHT22;6627;50.920;12.050;2023-09-07T00:34:53;13.20;99.90
13123;DHT22;6627;50.920;12.050;2023-09-07T00:37:20;13.10;99.90
13123;DHT22;6627;50.920;12.050;2023-09-07T00:39:47;13.00;99.90
13123;DHT22;6627;50.920;12.050;2023-09-07T00:42:15;12.90;99.90
13123;DHT22;6627;50.920;12.050;2023-09-07T00:44:43;12.80;99.90
13123;DHT22;6627;50.920;12.050;2023-09-07T00:47:11;12.90;99.90
13123;DHT22;6627;50.920;12.050;2023-09-07T00:49:39;12.80;99.90
13123;DHT22;6627;50.920;12.050;2023-09-07T00:52:08;12.80;99.90
13123;DHT22;6627;50.920;12.050;2023-09-07T00:54:36;12.70;99.90
13123;DHT22;6627;50.920;12.050;2023-09-07T00:57:06;12.60;99.90
13123;DHT22;6627;50.920;12.050;2023-09-07T00:59:40;12.60;99.90
13123;DHT22;6627;50.920;12.050;2023-09-07T01:02:28;12.60;99.90
13123;DHT22;6627;50.920;12.050;2023-09-07T01:04:56;12.50;99.90
13123;DHT22;6627;50.920;12.050;2023-09-07T01:07:25;12.40;99.90
13123;DHT22;6627;50.920;12.050;2023-09-07T01:10:00;12.50;99.90
13123;DHT22;6627;50.920;12.050;2023-09-07T01:12:29;12.40;99.90
13123;DHT22;6627;50.920;12.050;2023-09-07T01:14:56;12.30;99.90
13123;DHT22;6627;50.920;12.050;2023-09-07T01:17:24;12.20;99.90
13123;DHT22;6627;50.920;12.050;2023-09-07T01:19:54;12.20;99.90
13123;DHT22;6627;50.920;12.050;2023-09-07T01:22:26;12.20;99.90
13123;DHT22;6627;50.920;12.050;2023-09-07T01:24:58;12.20;99.90
13123;DHT22;6627;50.920;12.050;2023-09-07T01:27:47;12.20;99.90
13123;DHT22;6627;50.920;12.050;2023-09-07T01:30:16;12.40;99.90
13123;DHT22;6627;50.920;12.050;2023-09-07T01:32:44;12.70;99.90
13123;DHT22;6627;50.920;12.050;2023-09-07T01:35:11;12.40;99.90
13123;DHT22;6627;50.920;12.050;2023-09-07T01:37:45;12.30;99.90
13123;DHT22;6627;50.920;12.050;2023-09-07T01:40:12;12.30;99.90
13123;DHT22;6627;50.920;12.050;2023-09-07T01:42:45;12.30;99.90
13123;DHT22;6627;50.920;12.050;2023-09-07T01:45:13;12.30;99.90
13123;DHT22;6627;50.920;12.050;2023-09-07T01:47:40;12.30;99.90
13123;DHT22;6627;50.920;12.050;2023-09-07T01:50:08;12.20;99.90
13123;DHT22;6627;50.920;12.050;2023-09-07T01:52:57;12.10;99.90
13123;DHT22;6627;50.920;12.050;2023-09-07T01:55:24;12.10;99.90
13123;DHT22;6627;50.920;12.050;2023-09-07T01:57:53;12.20;99.90
13123;DHT22;6627;50.920;12.050;2023-09-07T02:00:21;12.20;99.90
13123;DHT22;6627;50.920;12.050;2023-09-07T02:02:48;12.20;99.90
13123;DHT22;6627;50.920;12.050;2023-09-07T02:05:15;12.30;99.90
13123;DHT22;6627;50.920;12.050;2023-09-07T02:07:43;12.10;99.90
13123;DHT22;6627;50.920;12.050;2023-09-07T02:10:12;12.20;99.90
13123;DHT22;6627;50.920;12.050;2023-09-07T02:12:41;12.20;99.90
13123;DHT22;6627;50.920;12.050;2023-09-07T02:15:09;12.40;99.90
13123;DHT22;6627;50.920;12.050;2023-09-07T02:17:56;12.30;99.90
13123;DHT22;6627;50.920;12.050;2023-09-07T02:20:43;12.40;99.90
13123;DHT22;6627;50.920;12.050;2023-09-07T02:23:10;12.40;99.90
13123;DHT22;6627;50.920;12.050;2023-09-07T02:25:40;12.30;99.90
13123;DHT22;6627;50.920;12.050;2023-09-07T02:28:08;12.30;99.90
13123;DHT22;6627;50.920;12.050;2023-09-07T02:30:35;12.70;99.90
13123;DHT22;6627;50.920;12.050;2023-09-07T02:33:03;12.90;99.90
13123;DHT22;6627;50.920;12.050;2023-09-07T02:35:31;12.70;99.90
13123;DHT22;6627;50.920;12.050;2023-09-07T02:37:58;12.50;99.90
13123;DHT22;6627;50.920;12.050;2023-09-07T02:40:26;12.20;99.90
13123;DHT22;6627;50.920;12.050;2023-09-07T02:42:55;12.10;99.90
13123;DHT22;6627;50.920;12.050;2023-09-07T02:45:22;11.90;99.90
13123;DHT22;6627;50.920;12.050;2023-09-07T02:47:50;11.90;99.90
13123;DHT22;6627;50.920;12.050;2023-09-07T02:52:45;11.80;99.90
13123;DHT22;6627;50.920;12.050;2023-09-07T02:55:13;11.70;99.90
13123;DHT22;6627;50.920;12.050;2023-09-07T02:57:41;11.60;99.90
13123;DHT22;6627;50.920;12.050;2023-09-07T03:00:10;11.60;99.90
13123;DHT22;6627;50.920;12.050;2023-09-07T03:02:38;11.60;99.90
13123;DHT22;6627;50.920;12.050;2023-09-07T03:05:07;11.50;99.90
13123;DHT22;6627;50.920;12.050;2023-09-07T03:07:35;11.60;99.90
13123;DHT22;6627;50.920;12.050;2023-09-07T03:10:03;11.60;99.90
13123;DHT22;6627;50.920;12.050;2023-09-07T03:12:30;11.80;99.90
13123;DHT22;6627;50.920;12.050;2023-09-07T03:14:58;12.10;99.90
13123;DHT22;6627;50.920;12.050;2023-09-07T03:17:30;12.30;99.90
13123;DHT22;6627;50.920;12.050;2023-09-07T03:19:58;12.10;99.90
13123;DHT22;6627;50.920;12.050;2023-09-07T03:22:26;11.90;99.90
13123;DHT22;6627;50.920;12.050;2023-09-07T03:31:07;11.60;99.90
13123;DHT22;6627;50.920;12.050;2023-09-07T03:33:35;11.60;99.90
13123;DHT22;6627;50.920;12.050;2023-09-07T03:36:03;11.40;99.90
13123;DHT22;6627;50.920;12.050;2023-09-07T03:38:30;11.40;99.90
13123;DHT22;6627;50.920;12.050;2023-09-07T03:41:17;11.30;99.90
13123;DHT22;6627;50.920;12.050;2023-09-07T03:43:44;11.20;99.90
13123;DHT22;6627;50.920;12.050;2023-09-07T03:46:12;11.20;99.90
13123;DHT22;6627;50.920;12.050;2023-09-07T03:48:40;11.20;99.90
13123;DHT22;6627;50.920;12.050;2023-09-07T03:51:08;11.20;99.90
13123;DHT22;6627;50.920;12.050;2023-09-07T03:53:35;11.00;99.90
13123;DHT22;6627;50.920;12.050;2023-09-07T03:56:03;11.00;99.90
13123;DHT22;6627;50.920;12.050;2023-09-07T03:58:31;11.10;99.90
13123;DHT22;6627;50.920;12.050;2023-09-07T04:00:58;11.30;99.90
13123;DHT22;6627;50.920;12.050;2023-09-07T04:03:26;11.20;99.90
13123;DHT22;6627;50.920;12.050;2023-09-07T04:05:55;11.20;99.90
13123;DHT22;6627;50.920;12.050;2023-09-07T04:08:22;11.20;99.90
13123;DHT22;6627;50.920;12.050;2023-09-07T04:10:50;11.00;99.90
13123;DHT22;6627;50.920;12.050;2023-09-07T04:13:17;10.90;99.90
13123;DHT22;6627;50.920;12.050;2023-09-07T04:15:45;10.90;99.90
13123;DHT22;6627;50.920;12.050;2023-09-07T04:18:13;10.90;99.90
13123;DHT22;6627;50.920;12.050;2023-09-07T04:20:42;10.80;99.90
13123;DHT22;6627;50.920;12.050;2023-09-07T04:23:11;10.80;99.90
13123;DHT22;6627;50.920;12.050;2023-09-07T04:25:38;10.70;99.90
13123;DHT22;6627;50.920;12.050;2023-09-07T04:28:06;10.70;99.90
13123;DHT22;6627;50.920;12.050;2023-09-07T04:30:37;10.70;99.90
13123;DHT22;6627;50.920;12.050;2023-09-07T04:33:04;10.70;99.90
13123;DHT22;6627;50.920;12.050;2023-09-07T04:35:32;10.70;99.90
13123;DHT22;6627;50.920;12.050;2023-09-07T04:38:01;10.70;99.90
13123;DHT22;6627;50.920;12.050;2023-09-07T04:40:29;10.60;99.90
13123;DHT22;6627;50.920;12.050;2023-09-07T04:42:56;10.60;99.90
13123;DHT22;6627;50.920;12.050;2023-09-07T04:45:24;10.70;99.90
13123;DHT22;6627;50.920;12.050;2023-09-07T04:47:51;10.60;99.90
13123;DHT22;6627;50.920;12.050;2023-09-07T04:50:19;10.70;99.90
13123;DHT22;6627;50.920;12.050;2023-09-07T04:52:46;10.70;99.90
13123;DHT22;6627;50.920;12.050;2023-09-07T04:55:14;10.80;99.90
13123;DHT22;6627;50.920;12.050;2023-09-07T04:57:43;10.80;99.90
13123;DHT22;6627;50.920;12.050;2023-09-07T05:00:10;10.80;99.90
13123;DHT22;6627;50.920;12.050;2023-09-07T05:02:39;11.00;99.90
13123;DHT22;6627;50.920;12.050;2023-09-07T05:05:09;11.10;99.90
13123;DHT22;6627;50.920;12.050;2023-09-07T05:07:36;11.10;99.90
13123;DHT22;6627;50.920;12.050;2023-09-07T05:10:04;11.30;99.90
13123;DHT22;6627;50.920;12.050;2023-09-07T05:12:35;11.50;99.90
13123;DHT22;6627;50.920;12.050;2023-09-07T05:15:05;11.50;99.90
13123;DHT22;6627;50.920;12.050;2023-09-07T05:17:33;11.50;99.90
13123;DHT22;6627;50.920;12.050;2023-09-07T05:20:01;11.30;99.90
13123;DHT22;6627;50.920;12.050;2023-09-07T05:22:44;11.30;99.90
13123;DHT22;6627;50.920;12.050;2023-09-07T05:25:12;11.50;99.90
13123;DHT22;6627;50.920;12.050;2023-09-07T05:27:41;11.40;99.90
13123;DHT22;6627;50.920;12.050;2023-09-07T05:30:11;11.60;99.90
13123;DHT22;6627;50.920;12.050;2023-09-07T05:32:39;11.70;99.90
13123;DHT22;6627;50.920;12.050;2023-09-07T05:35:08;11.90;99.90
13123;DHT22;6627;50.920;12.050;2023-09-07T05:37:36;12.00;99.90
13123;DHT22;6627;50.920;12.050;2023-09-07T05:40:04;12.20;99.90
13123;DHT22;6627;50.920;12.050;2023-09-07T05:42:33;12.30;99.90
13123;DHT22;6627;50.920;12.050;2023-09-07T05:45:01;12.30;99.90
13123;DHT22;6627;50.920;12.050;2023-09-07T05:47:30;12.40;99.90
13123;DHT22;6627;50.920;12.050;2023-09-07T05:49:58;12.50;99.90
13123;DHT22;6627;50.920;12.050;2023-09-07T05:52:25;12.60;99.90
13123;DHT22;6627;50.920;12.050;2023-09-07T05:54:52;12.60;99.90
13123;DHT22;6627;50.920;12.050;2023-09-07T05:57:20;12.70;99.90
13123;DHT22;6627;50.920;12.050;2023-09-07T05:59:48;12.60;99.90
13123;DHT22;6627;50.920;12.050;2023-09-07T06:02:16;12.70;99.90
13123;DHT22;6627;50.920;12.050;2023-09-07T06:04:45;12.70;99.90
13123;DHT22;6627;50.920;12.050;2023-09-07T06:07:12;12.70;99.90
13123;DHT22;6627;50.920;12.050;2023-09-07T06:09:40;12.80;99.90
13123;DHT22;6627;50.920;12.050;2023-09-07T06:12:07;12.70;99.90
13123;DHT22;6627;50.920;12.050;2023-09-07T06:14:35;12.80;99.90
13123;DHT22;6627;50.920;12.050;2023-09-07T06:17:03;12.80;99.90
13123;DHT22;6627;50.920;12.050;2023-09-07T06:19:31;12.90;99.90
13123;DHT22;6627;50.920;12.050;2023-09-07T06:22:00;13.00;99.90
13123;DHT22;6627;50.920;12.050;2023-09-07T06:24:28;13.10;99.90
13123;DHT22;6627;50.920;12.050;2023-09-07T06:26:56;13.30;99.90
13123;DHT22;6627;50.920;12.050;2023-09-07T06:29:23;13.50;99.90
13123;DHT22;6627;50.920;12.050;2023-09-07T06:31:50;13.60;99.90
13123;DHT22;6627;50.920;12.050;2023-09-07T06:34:18;13.70;99.90
13123;DHT22;6627;50.920;12.050;2023-09-07T06:36:46;13.80;99.90
13123;DHT22;6627;50.920;12.050;2023-09-07T06:39:15;13.90;99.90
13123;DHT22;6627;50.920;12.050;2023-09-07T06:41:45;13.90;99.90
13123;DHT22;6627;50.920;12.050;2023-09-07T06:44:13;14.10;99.90
13123;DHT22;6627;50.920;12.050;2023-09-07T06:46:41;14.20;99.90
13123;DHT22;6627;50.920;12.050;2023-09-07T06:49:09;14.30;99.90
13123;DHT22;6627;50.920;12.050;2023-09-07T06:51:36;14.40;99.90
13123;DHT22;6627;50.920;12.050;2023-09-07T06:54:05;14.40;99.90
13123;DHT22;6627;50.920;12.050;2023-09-07T06:56:34;14.60;99.90
13123;DHT22;6627;50.920;12.050;2023-09-07T06:59:01;14.70;99.90
13123;DHT22;6627;50.920;12.050;2023-09-07T07:01:30;14.80;99.90
13123;DHT22;6627;50.920;12.050;2023-09-07T07:03:59;14.90;99.90
13123;DHT22;6627;50.920;12.050;2023-09-07T07:06:27;15.00;99.90
13123;DHT22;6627;50.920;12.050;2023-09-07T07:08:55;15.10;99.90
13123;DHT22;6627;50.920;12.050;2023-09-07T07:11:23;15.20;99.90
13123;DHT22;6627;50.920;12.050;2023-09-07T07:13:52;15.40;99.90
13123;DHT22;6627;50.920;12.050;2023-09-07T07:16:19;15.50;99.90
13123;DHT22;6627;50.920;12.050;2023-09-07T07:18:47;15.80;99.90
13123;DHT22;6627;50.920;12.050;2023-09-07T07:21:14;15.70;99.90
13123;DHT22;6627;50.920;12.050;2023-09-07T07:23:41;15.80;99.90
13123;DHT22;6627;50.920;12.050;2023-09-07T07:26:09;15.90;99.90
13123;DHT22;6627;50.920;12.050;2023-09-07T07:28:36;16.00;99.90
13123;DHT22;6627;50.920;12.050;2023-09-07T07:31:08;16.20;99.90
13123;DHT22;6627;50.920;12.050;2023-09-07T07:33:36;16.20;99.90
13123;DHT22;6627;50.920;12.050;2023-09-07T07:36:04;16.30;99.90
13123;DHT22;6627;50.920;12.050;2023-09-07T07:38:32;16.40;99.90
13123;DHT22;6627;50.920;12.050;2023-09-07T07:41:00;16.50;99.90
13123;DHT22;6627;50.920;12.050;2023-09-07T07:43:29;16.60;99.90
13123;DHT22;6627;50.920;12.050;2023-09-07T07:46:00;16.80;99.90
13123;DHT22;6627;50.920;12.050;2023-09-07T07:48:32;16.90;99.90
13123;DHT22;6627;50.920;12.050;2023-09-07T07:51:03;17.00;99.90
13123;DHT22;6627;50.920;12.050;2023-09-07T07:53:31;17.10;99.90
13123;DHT22;6627;50.920;12.050;2023-09-07T07:55:58;17.30;99.90
13123;DHT22;6627;50.920;12.050;2023-09-07T07:58:26;17.40;99.90
13123;DHT22;6627;50.920;12.050;2023-09-07T08:00:54;17.60;99.90
13123;DHT22;6627;50.920;12.050;2023-09-07T08:03:24;17.80;99.90
13123;DHT22;6627;50.920;12.050;2023-09-07T08:05:52;17.90;99.90
13123;DHT22;6627;50.920;12.050;2023-09-07T08:08:20;18.10;99.90
13123;DHT22;6627;50.920;12.050;2023-09-07T08:10:47;18.40;99.90
13123;DHT22;6627;50.920;12.050;2023-09-07T08:13:15;18.60;99.90
13123;DHT22;6627;50.920;12.050;2023-09-07T08:15:43;18.80;99.90
13123;DHT22;6627;50.920;12.050;2023-09-07T08:18:11;19.40;99.90
13123;DHT22;6627;50.920;12.050;2023-09-07T08:20:39;19.00;99.90
13123;DHT22;6627;50.920;12.050;2023-09-07T08:23:08;19.30;99.90
13123;DHT22;6627;50.920;12.050;2023-09-07T08:25:38;19.30;99.90
13123;DHT22;6627;50.920;12.050;2023-09-07T08:28:10;19.40;99.90
13123;DHT22;6627;50.920;12.050;2023-09-07T08:30:41;19.60;99.90
13123;DHT22;6627;50.920;12.050;2023-09-07T08:33:10;19.80;99.90
13123;DHT22;6627;50.920;12.050;2023-09-07T08:35:38;20.00;99.90
13123;DHT22;6627;50.920;12.050;2023-09-07T08:38:11;20.10;99.90
13123;DHT22;6627;50.920;12.050;2023-09-07T08:40:39;20.20;99.90
13123;DHT22;6627;50.920;12.050;2023-09-07T08:43:09;20.50;99.90
13123;DHT22;6627;50.920;12.050;2023-09-07T08:45:41;20.60;99.90
13123;DHT22;6627;50.920;12.050;2023-09-07T08:48:16;20.90;99.90
13123;DHT22;6627;50.920;12.050;2023-09-07T08:50:46;21.10;99.90
13123;DHT22;6627;50.920;12.050;2023-09-07T08:53:18;21.20;99.90
13123;DHT22;6627;50.920;12.050;2023-09-07T08:55:48;21.40;99.90
13123;DHT22;6627;50.920;12.050;2023-09-07T08:58:16;21.60;99.90
13123;DHT22;6627;50.920;12.050;2023-09-07T09:00:44;21.80;99.90
13123;DHT22;6627;50.920;12.050;2023-09-07T09:03:12;22.00;99.90
13123;DHT22;6627;50.920;12.050;2023-09-07T09:05:40;22.10;99.90
13123;DHT22;6627;50.920;12.050;2023-09-07T09:08:07;22.20;99.90
13123;DHT22;6627;50.920;12.050;2023-09-07T09:10:39;22.40;99.90
13123;DHT22;6627;50.920;12.050;2023-09-07T09:13:07;22.50;99.90
13123;DHT22;6627;50.920;12.050;2023-09-07T09:15:37;22.70;99.90
13123;DHT22;6627;50.920;12.050;2023-09-07T09:18:10;22.90;99.90
13123;DHT22;6627;50.920;12.050;2023-09-07T09:20:39;23.10;99.90
13123;DHT22;6627;50.920;12.050;2023-09-07T09:23:07;23.20;99.90
13123;DHT22;6627;50.920;12.050;2023-09-07T09:25:35;23.40;99.90
13123;DHT22;6627;50.920;12.050;2023-09-07T09:28:05;23.40;99.90
13123;DHT22;6627;50.920;12.050;2023-09-07T09:30:32;23.60;99.90
13123;DHT22;6627;50.920;12.050;2023-09-07T09:33:00;23.80;99.90
13123;DHT22;6627;50.920;12.050;2023-09-07T09:35:28;23.90;99.90
13123;DHT22;6627;50.920;12.050;2023-09-07T09:38:00;24.10;99.90
13123;DHT22;6627;50.920;12.050;2023-09-07T09:43:03;24.30;99.90
13123;DHT22;6627;50.920;12.050;2023-09-07T09:45:33;24.50;99.90
13123;DHT22;6627;50.920;12.050;2023-09-07T09:48:03;24.60;99.90
13123;DHT22;6627;50.920;12.050;2023-09-07T09:50:39;24.70;99.90
13123;DHT22;6627;50.920;12.050;2023-09-07T09:53:08;24.90;99.90
13123;DHT22;6627;50.920;12.050;2023-09-07T09:55:40;25.00;99.90
13123;DHT22;6627;50.920;12.050;2023-09-07T09:58:09;25.00;99.90
13123;DHT22;6627;50.920;12.050;2023-09-07T10:00:37;25.20;99.90
13123;DHT22;6627;50.920;12.050;2023-09-07T10:03:08;25.30;99.90
13123;DHT22;6627;50.920;12.050;2023-09-07T10:05:40;25.40;99.90
13123;DHT22;6627;50.920;12.050;2023-09-07T10:08:09;25.50;99.90
13123;DHT22;6627;50.920;12.050;2023-09-07T10:10:41;25.70;99.90
13123;DHT22;6627;50.920;12.050;2023-09-07T10:13:13;25.70;99.90
13123;DHT22;6627;50.920;12.050;2023-09-07T10:15:41;25.90;99.90
13123;DHT22;6627;50.920;12.050;2023-09-07T10:18:10;26.00;99.90
13123;DHT22;6627;50.920;12.050;2023-09-07T10:20:49;26.10;99.90
13123;DHT22;6627;50.920;12.050;2023-09-07T10:25:51;26.20;99.90
13123;DHT22;6627;50.920;12.050;2023-09-07T10:28:22;26.30;99.90
13123;DHT22;6627;50.920;12.050;2023-09-07T10:31:03;26.50;99.90
13123;DHT22;6627;50.920;12.050;2023-09-07T10:33:52;26.60;99.90
13123;DHT22;6627;50.920;12.050;2023-09-07T10:36:20;26.70;99.90
13123;DHT22;6627;50.920;12.050;2023-09-07T10:43:51;26.90;99.90
13123;DHT22;6627;50.920;12.050;2023-09-07T10:46:37;26.90;99.90
13123;DHT22;6627;50.920;12.050;2023-09-07T10:49:07;27.00;99.90
13123;DHT22;6627;50.920;12.050;2023-09-07T10:51:44;27.10;99.90
13123;DHT22;6627;50.920;12.050;2023-09-07T10:54:17;27.20;99.90
13123;DHT22;6627;50.920;12.050;2023-09-07T10:56:46;27.30;99.90
13123;DHT22;6627;50.920;12.050;2023-09-07T10:59:17;27.20;99.90
13123;DHT22;6627;50.920;12.050;2023-09-07T11:01:44;27.30;99.90
13123;DHT22;6627;50.920;12.050;2023-09-07T11:04:12;27.30;99.90
13123;DHT22;6627;50.920;12.050;2023-09-07T11:06:42;27.40;99.90
13123;DHT22;6627;50.920;12.050;2023-09-07T11:09:09;27.60;99.90
13123;DHT22;6627;50.920;12.050;2023-09-07T11:11:37;27.60;99.90
13123;DHT22;6627;50.920;12.050;2023-09-07T11:14:05;27.80;99.90
13123;DHT22;6627;50.920;12.050;2023-09-07T11:16:36;27.80;99.90
13123;DHT22;6627;50.920;12.050;2023-09-07T11:19:08;27.80;99.90
13123;DHT22;6627;50.920;12.050;2023-09-07T11:21:35;27.90;99.90
13123;DHT22;6627;50.920;12.050;2023-09-07T11:24:04;28.00;99.90
13123;DHT22;6627;50.920;12.050;2023-09-07T11:26:41;28.00;99.90
13123;DHT22;6627;50.920;12.050;2023-09-07T11:29:14;28.10;99.90
13123;DHT22;6627;50.920;12.050;2023-09-07T11:31:43;28.10;99.90
13123;DHT22;6627;50.920;12.050;2023-09-07T11:34:14;28.20;99.90
13123;DHT22;6627;50.920;12.050;2023-09-07T11:36:45;28.20;99.90
13123;DHT22;6627;50.920;12.050;2023-09-07T11:39:15;28.10;99.90
13123;DHT22;6627;50.920;12.050;2023-09-07T11:41:44;28.30;99.90
13123;DHT22;6627;50.920;12.050;2023-09-07T11:44:11;28.40;99.90
13123;DHT22;6627;50.920;12.050;2023-09-07T11:46:43;28.50;99.90
13123;DHT22;6627;50.920;12.050;2023-09-07T11:51:39;28.50;99.90
13123;DHT22;6627;50.920;12.050;2023-09-07T11:54:06;28.50;99.90
13123;DHT22;6627;50.920;12.050;2023-09-07T11:56:34;28.40;99.90
13123;DHT22;6627;50.920;12.050;2023-09-07T11:59:05;28.40;99.90
13123;DHT22;6627;50.920;12.050;2023-09-07T12:01:35;28.60;99.90
13123;DHT22;6627;50.920;12.050;2023-09-07T12:04:04;28.70;99.90
13123;DHT22;6627;50.920;12.050;2023-09-07T12:06:34;28.90;99.90
13123;DHT22;6627;50.920;12.050;2023-09-07T12:09:03;29.00;99.90
13123;DHT22;6627;50.920;12.050;2023-09-07T12:11:33;29.00;99.90
13123;DHT22;6627;50.920;12.050;2023-09-07T12:14:01;29.00;99.90
13123;DHT22;6627;50.920;12.050;2023-09-07T12:16:30;29.20;99.90
13123;DHT22;6627;50.920;12.050;2023-09-07T12:18:59;29.10;98.60
13123;DHT22;6627;50.920;12.050;2023-09-07T12:24:00;29.20;98.50
13123;DHT22;6627;50.920;12.050;2023-09-07T12:26:29;29.30;98.90
13123;DHT22;6627;50.920;12.050;2023-09-07T12:28:56;29.50;99.90
13123;DHT22;6627;50.920;12.050;2023-09-07T12:31:24;29.50;99.90
13123;DHT22;6627;50.920;12.050;2023-09-07T12:33:52;29.30;99.70
13123;DHT22;6627;50.920;12.050;2023-09-07T12:36:20;29.30;99.20
13123;DHT22;6627;50.920;12.050;2023-09-07T12:38:49;29.40;97.30
13123;DHT22;6627;50.920;12.050;2023-09-07T12:43:44;29.40;97.90
13123;DHT22;6627;50.920;12.050;2023-09-07T12:46:11;29.50;99.10
13123;DHT22;6627;50.920;12.050;2023-09-07T12:48:40;29.60;98.30
13123;DHT22;6627;50.920;12.050;2023-09-07T12:51:07;29.70;97.10
13123;DHT22;6627;50.920;12.050;2023-09-07T12:53:34;29.70;97.40
13123;DHT22;6627;50.920;12.050;2023-09-07T12:56:04;29.70;97.50
13123;DHT22;6627;50.920;12.050;2023-09-07T12:58:31;29.70;96.70
13123;DHT22;6627;50.920;12.050;2023-09-07T13:00:59;29.70;95.20
13123;DHT22;6627;50.920;12.050;2023-09-07T13:03:26;29.80;95.30
13123;DHT22;6627;50.920;12.050;2023-09-07T13:05:54;29.80;91.50
13123;DHT22;6627;50.920;12.050;2023-09-07T13:08:21;29.80;93.40
13123;DHT22;6627;50.920;12.050;2023-09-07T13:10:49;29.90;90.00
13123;DHT22;6627;50.920;12.050;2023-09-07T13:13:20;29.90;89.60
13123;DHT22;6627;50.920;12.050;2023-09-07T13:15:50;29.90;85.60
13123;DHT22;6627;50.920;12.050;2023-09-07T13:18:18;30.00;83.70
13123;DHT22;6627;50.920;12.050;2023-09-07T13:20:46;30.10;84.80
13123;DHT22;6627;50.920;12.050;2023-09-07T13:25:44;29.90;82.00
13123;DHT22;6627;50.920;12.050;2023-09-07T13:28:12;30.00;82.90
13123;DHT22;6627;50.920;12.050;2023-09-07T13:30:41;30.00;80.90
13123;DHT22;6627;50.920;12.050;2023-09-07T13:33:15;30.10;83.00
13123;DHT22;6627;50.920;12.050;2023-09-07T13:35:43;30.10;83.10
13123;DHT22;6627;50.920;12.050;2023-09-07T13:38:12;30.20;87.90
13123;DHT22;6627;50.920;12.050;2023-09-07T13:43:08;30.20;78.80
13123;DHT22;6627;50.920;12.050;2023-09-07T13:45:36;30.10;80.90
13123;DHT22;6627;50.920;12.050;2023-09-07T13:48:05;30.20;84.60
13123;DHT22;6627;50.920;12.050;2023-09-07T13:50:33;30.20;78.60
13123;DHT22;6627;50.920;12.050;2023-09-07T13:53:01;30.20;80.20
13123;DHT22;6627;50.920;12.050;2023-09-07T13:55:28;30.30;78.90
13123;DHT22;6627;50.920;12.050;2023-09-07T13:57:56;30.20;78.60
13123;DHT22;6627;50.920;12.050;2023-09-07T14:00:23;30.10;77.50
13123;DHT22;6627;50.920;12.050;2023-09-07T14:02:52;30.20;77.00
13123;DHT22;6627;50.920;12.050;2023-09-07T14:05:21;30.10;73.30
13123;DHT22;6627;50.920;12.050;2023-09-07T14:07:49;30.10;75.80
13123;DHT22;6627;50.920;12.050;2023-09-07T14:10:16;30.20;73.70
13123;DHT22;6627;50.920;12.050;2023-09-07T14:12:44;30.20;73.70
13123;DHT22;6627;50.920;12.050;2023-09-07T14:15:14;30.20;68.90
13123;DHT22;6627;50.920;12.050;2023-09-07T14:20:11;29.80;70.60
13123;DHT22;6627;50.920;12.050;2023-09-07T14:22:41;29.90;70.70
13123;DHT22;6627;50.920;12.050;2023-09-07T14:25:17;30.20;68.80
13123;DHT22;6627;50.920;12.050;2023-09-07T14:27:45;30.20;74.20
13123;DHT22;6627;50.920;12.050;2023-09-07T14:30:12;30.30;70.00
13123;DHT22;6627;50.920;12.050;2023-09-07T14:32:40;30.40;65.40
13123;DHT22;6627;50.920;12.050;2023-09-07T14:35:07;30.40;65.00
13123;DHT22;6627;50.920;12.050;2023-09-07T14:37:35;30.30;63.70
13123;DHT22;6627;50.920;12.050;2023-09-07T14:40:06;30.30;60.40
13123;DHT22;6627;50.920;12.050;2023-09-07T14:42:36;30.30;63.50
13123;DHT22;6627;50.920;12.050;2023-09-07T14:45:04;30.20;65.20
13123;DHT22;6627;50.920;12.050;2023-09-07T14:50:01;30.30;67.30
13123;DHT22;6627;50.920;12.050;2023-09-07T14:52:29;30.40;62.70
13123;DHT22;6627;50.920;12.050;2023-09-07T14:54:58;30.40;69.80
13123;DHT22;6627;50.920;12.050;2023-09-07T14:57:27;30.50;62.60
13123;DHT22;6627;50.920;12.050;2023-09-07T14:59:54;30.50;64.90
13123;DHT22;6627;50.920;12.050;2023-09-07T15:02:21;30.60;63.10
13123;DHT22;6627;50.920;12.050;2023-09-07T15:04:50;30.60;62.60
13123;DHT22;6627;50.920;12.050;2023-09-07T15:07:17;30.50;60.50
13123;DHT22;6627;50.920;12.050;2023-09-07T15:09:46;30.60;59.40
13123;DHT22;6627;50.920;12.050;2023-09-07T15:12:14;30.60;60.20
13123;DHT22;6627;50.920;12.050;2023-09-07T15:14:42;30.60;62.00
13123;DHT22;6627;50.920;12.050;2023-09-07T15:19:39;30.50;59.20
13123;DHT22;6627;50.920;12.050;2023-09-07T15:22:07;30.40;63.00
13123;DHT22;6627;50.920;12.050;2023-09-07T15:24:35;30.50;61.40
13123;DHT22;6627;50.920;12.050;2023-09-07T15:27:07;30.50;64.30
13123;DHT22;6627;50.920;12.050;2023-09-07T15:29:35;30.40;69.00
13123;DHT22;6627;50.920;12.050;2023-09-07T15:32:05;30.30;65.80
13123;DHT22;6627;50.920;12.050;2023-09-07T15:34:32;30.40;66.10
13123;DHT22;6627;50.920;12.050;2023-09-07T15:37:00;30.40;65.60
13123;DHT22;6627;50.920;12.050;2023-09-07T15:39:31;30.50;68.00
13123;DHT22;6627;50.920;12.050;2023-09-07T15:41:58;30.40;60.70
13123;DHT22;6627;50.920;12.050;2023-09-07T15:44:25;30.30;59.60
13123;DHT22;6627;50.920;12.050;2023-09-07T15:46:55;30.20;61.40
13123;DHT22;6627;50.920;12.050;2023-09-07T15:49:24;30.30;64.90
13123;DHT22;6627;50.920;12.050;2023-09-07T15:51:51;30.20;66.80
13123;DHT22;6627;50.920;12.050;2023-09-07T15:54:18;30.20;66.30
13123;DHT22;6627;50.920;12.050;2023-09-07T15:59:13;30.10;63.20
13123;DHT22;6627;50.920;12.050;2023-09-07T16:01:40;30.00;67.40
13123;DHT22;6627;50.920;12.050;2023-09-07T16:04:08;29.90;68.80
13123;DHT22;6627;50.920;12.050;2023-09-07T16:06:38;29.70;66.00
13123;DHT22;6627;50.920;12.050;2023-09-07T16:09:20;29.60;68.50
13123;DHT22;6627;50.920;12.050;2023-09-07T16:11:48;29.50;71.50
13123;DHT22;6627;50.920;12.050;2023-09-07T16:14:18;29.30;70.80
13123;DHT22;6627;50.920;12.050;2023-09-07T16:16:45;29.20;74.80
13123;DHT22;6627;50.920;12.050;2023-09-07T16:19:13;29.20;78.10
13123;DHT22;6627;50.920;12.050;2023-09-07T16:21:42;29.20;71.50
13123;DHT22;6627;50.920;12.050;2023-09-07T16:24:11;29.10;73.60